Time;durP1;ratioP1;P1;durP2;ratioP2;P2;SDS_P1;SDS_P2;PMS_P1;PMS_P2;Temp;Humidity;BMP_temperature;BMP_pressure;BME280_temperature;BME280_humidity;BME280_pressure;Samples;Min_cycle;Max_cycle;Signal;HPM_P1;HPM_P2
2023/07/26 00:01:59;;;;;;;4.70;1.60;;;15.20;51.10;;;;;;5018829;28;20487;-51
2023/07/26 00:04:26;;;;;;;2.97;1.60;;;15.10;50.70;;;;;;5019548;28;20463;-50
2023/07/26 00:06:52;;;;;;;4.47;1.97;;;15.10;50.30;;;;;;5021141;28;20538;-52
2023/07/26 00:09:19;;;;;;;5.37;1.50;;;15.00;51.40;;;;;;5025918;28;20483;-51
2023/07/26 00:11:47;;;;;;;6.60;1.57;;;15.00;51.90;;;;;;5027004;28;20565;-50
2023/07/26 00:14:14;;;;;;;6.83;1.80;;;14.90;50.10;;;;;;5026665;28;20952;-50
2023/07/26 00:16:41;;;;;;;8.37;1.50;;;14.80;40.90;;;;;;5029014;28;20459;-51
2023/07/26 00:19:07;;;;;;;5.47;1.90;;;14.80;45.60;;;;;;5022060;28;20569;-50
2023/07/26 00:21:34;;;;;;;6.70;2.10;;;14.70;38.90;;;;;;5028107;28;20482;-51
2023/07/26 00:24:01;;;;;;;5.90;1.80;;;14.60;33.80;;;;;;5027396;28;20466;-51
2023/07/26 00:26:27;;;;;;;7.70;2.97;;;14.60;40.80;;;;;;5028989;28;20473;-52
2023/07/26 00:28:55;;;;;;;8.40;1.53;;;14.60;35.10;;;;;;5022889;28;20547;-51
2023/07/26 00:31:22;;;;;;;6.80;1.77;;;14.50;31.40;;;;;;5030326;28;21020;-51
2023/07/26 00:33:48;;;;;;;3.47;1.37;;;14.40;29.70;;;;;;5021388;28;20494;-51
2023/07/26 00:36:15;;;;;;;7.57;1.70;;;14.40;28.90;;;;;;5019755;28;20495;-51
2023/07/26 00:38:41;;;;;;;9.37;1.60;;;14.30;28.30;;;;;;5027181;28;20502;-50
2023/07/26 00:41:08;;;;;;;8.63;1.83;;;14.20;20.10;;;;;;5029682;28;20999;-50
2023/07/26 00:43:35;;;;;;;4.67;1.40;;;14.30;78.30;;;;;;5030614;28;20514;-51
2023/07/26 00:46:04;;;;;;;4.40;1.50;;;14.20;76.40;;;;;;5020294;28;21001;-51
2023/07/26 00:48:31;;;;;;;4.70;1.70;;;14.20;88.60;;;;;;5023807;28;20502;-51
2023/07/26 00:50:59;;;;;;;4.80;1.70;;;14.00;99.90;;;;;;5030295;28;20537;-51
2023/07/26 00:53:25;;;;;;;8.60;1.70;;;14.00;99.90;;;;;;5028953;28;20513;-51
2023/07/26 00:55:53;;;;;;;4.30;1.63;;;13.90;99.90;;;;;;5030917;28;20549;-52
2023/07/26 00:58:20;;;;;;;2.83;1.53;;;13.90;99.90;;;;;;5031401;28;20501;-51
2023/07/26 01:00:47;;;;;;;3.63;1.73;;;13.90;99.90;;;;;;5031637;28;20483;-51
2023/07/26 01:03:15;;;;;;;6.93;1.73;;;13.80;99.90;;;;;;5031780;28;20526;-51
2023/07/26 01:05:50;;;;;;;4.50;1.60;;;13.80;99.90;;;;;;5026205;28;20489;-52
2023/07/26 01:08:27;;;;;;;4.57;1.83;;;13.70;99.90;;;;;;5024271;28;20489;-52
2023/07/26 01:10:57;;;;;;;5.73;1.97;;;13.60;99.90;;;;;;5028114;28;21052;-51
2023/07/26 01:13:32;;;;;;;8.20;1.60;;;13.60;99.90;;;;;;5030744;28;20880;-51
2023/07/26 01:16:00;;;;;;;4.80;1.83;;;13.60;99.90;;;;;;5031244;28;20513;-51
2023/07/26 01:18:28;;;;;;;4.00;1.60;;;13.50;99.90;;;;;;5035466;28;20533;-50
2023/07/26 01:20:55;;;;;;;2.20;1.40;;;13.40;99.90;;;;;;5030904;28;21071;-51
2023/07/26 01:23:22;;;;;;;2.87;1.50;;;13.40;99.90;;;;;;5032507;28;20542;-51
2023/07/26 01:25:49;;;;;;;5.80;1.80;;;13.30;99.90;;;;;;5033851;28;20450;-51
2023/07/26 01:28:16;;;;;;;5.10;1.90;;;13.30;99.90;;;;;;5035084;28;20533;-51
2023/07/26 01:30:43;;;;;;;8.60;2.00;;;13.20;99.90;;;;;;5030139;28;20881;-51
2023/07/26 01:33:10;;;;;;;6.53;2.00;;;13.20;99.90;;;;;;5031895;28;20986;-51
2023/07/26 01:35:39;;;;;;;17.07;2.90;;;13.20;99.90;;;;;;5027645;28;20470;-52
2023/07/26 01:38:07;;;;;;;5.07;2.10;;;13.20;99.90;;;;;;5029866;28;20553;-51
2023/07/26 01:40:36;;;;;;;7.07;1.67;;;13.10;99.90;;;;;;5034606;28;20528;-51
2023/07/26 01:43:03;;;;;;;4.93;1.80;;;13.00;99.90;;;;;;5028905;28;20922;-51
2023/07/26 01:45:30;;;;;;;4.40;1.47;;;12.90;99.90;;;;;;5032089;28;20585;-51
2023/07/26 01:47:57;;;;;;;7.47;2.13;;;12.90;99.90;;;;;;5033213;28;20471;-52
2023/07/26 01:50:23;;;;;;;4.93;2.00;;;12.90;99.90;;;;;;5031268;28;20513;-51
2023/07/26 01:52:50;;;;;;;7.70;1.53;;;12.80;99.90;;;;;;5032008;28;20518;-52
2023/07/26 01:55:17;;;;;;;7.73;1.77;;;12.80;99.90;;;;;;5032327;28;20497;-52
2023/07/26 01:57:44;;;;;;;3.30;1.57;;;12.70;99.90;;;;;;5034435;28;20991;-50
2023/07/26 02:00:11;;;;;;;6.70;1.80;;;12.60;99.90;;;;;;5025537;28;20509;-51
2023/07/26 02:02:38;;;;;;;3.47;1.50;;;12.60;99.90;;;;;;5030943;28;20996;-51
2023/07/26 02:05:06;;;;;;;8.20;2.13;;;12.70;99.90;;;;;;5032457;28;20459;-50
2023/07/26 02:07:33;;;;;;;8.10;2.30;;;12.60;99.90;;;;;;5029903;28;20470;-51
2023/07/26 02:09:59;;;;;;;5.77;2.13;;;12.50;99.90;;;;;;5031670;28;20470;-52
2023/07/26 02:12:26;;;;;;;4.77;1.60;;;12.60;99.90;;;;;;5034284;28;20815;-50
2023/07/26 02:14:54;;;;;;;9.67;2.07;;;12.50;99.90;;;;;;5024753;28;20909;-51
2023/07/26 02:17:20;;;;;;;4.67;1.83;;;12.50;99.90;;;;;;5033107;28;20498;-52
2023/07/26 02:19:47;;;;;;;3.40;2.00;;;12.50;99.90;;;;;;5031530;28;20602;-51
2023/07/26 02:22:13;;;;;;;8.17;1.47;;;12.50;99.90;;;;;;5028899;28;20558;-51
2023/07/26 02:24:40;;;;;;;4.70;2.30;;;12.40;99.90;;;;;;5024798;28;20519;-52
2023/07/26 02:27:06;;;;;;;10.80;1.80;;;12.40;99.90;;;;;;5028469;28;20460;-51
2023/07/26 02:29:34;;;;;;;3.80;1.77;;;12.40;99.90;;;;;;5022064;28;20844;-51
2023/07/26 02:32:02;;;;;;;5.90;2.60;;;12.40;99.90;;;;;;5029382;28;20510;-50
2023/07/26 02:34:28;;;;;;;4.37;1.97;;;12.40;99.40;;;;;;5026421;28;21227;-51
2023/07/26 02:36:55;;;;;;;4.70;1.83;;;12.40;99.90;;;;;;5027993;28;20995;-51
2023/07/26 02:39:21;;;;;;;8.67;2.17;;;12.40;99.70;;;;;;5027562;28;20883;-51
2023/07/26 02:41:48;;;;;;;5.43;2.20;;;12.30;95.10;;;;;;5026198;28;21942;-52
2023/07/26 02:44:14;;;;;;;5.53;1.60;;;12.30;98.40;;;;;;5030250;28;20494;-52
2023/07/26 02:46:41;;;;;;;6.90;1.93;;;12.30;95.10;;;;;;5031147;28;20487;-53
2023/07/26 02:49:09;;;;;;;3.70;1.93;;;12.20;96.90;;;;;;5028984;28;20458;-53
2023/07/26 02:51:35;;;;;;;7.10;1.80;;;12.20;90.70;;;;;;5028842;28;20528;-53
2023/07/26 02:54:02;;;;;;;15.70;2.47;;;12.20;82.50;;;;;;5029411;28;20482;-52
2023/07/26 02:56:28;;;;;;;4.50;1.70;;;12.20;89.70;;;;;;5031934;28;20509;-52
2023/07/26 02:58:55;;;;;;;4.00;1.80;;;12.20;80.30;;;;;;5023053;28;20455;-53
2023/07/26 03:01:22;;;;;;;5.30;2.30;;;12.20;86.50;;;;;;5029941;28;20541;-53
2023/07/26 03:03:48;;;;;;;7.43;2.00;;;12.10;85.00;;;;;;5022080;28;20509;-54
2023/07/26 03:06:16;;;;;;;6.37;1.93;;;12.10;85.00;;;;;;5025888;28;20478;-51
2023/07/26 03:08:42;;;;;;;4.60;1.83;;;12.10;81.20;;;;;;5029709;28;20486;-52
2023/07/26 03:11:09;;;;;;;6.77;2.03;;;12.10;81.00;;;;;;5030016;28;20478;-53
2023/07/26 03:13:36;;;;;;;3.80;1.60;;;12.10;74.80;;;;;;5030594;28;20967;-51
2023/07/26 03:16:02;;;;;;;5.17;1.80;;;12.00;74.30;;;;;;5027521;28;20495;-52
2023/07/26 03:18:29;;;;;;;6.10;2.03;;;12.00;70.90;;;;;;5024369;28;20525;-53
2023/07/26 03:20:55;;;;;;;7.30;2.07;;;12.00;64.50;;;;;;5026348;28;20949;-54
2023/07/26 03:23:23;;;;;;;8.73;2.30;;;12.00;67.90;;;;;;5029181;28;20553;-55
2023/07/26 03:25:50;;;;;;;11.63;2.00;;;11.90;66.60;;;;;;5030702;28;20483;-54
2023/07/26 03:28:16;;;;;;;4.23;1.90;;;11.90;66.40;;;;;;5026362;28;20901;-52
2023/07/26 03:30:43;;;;;;;3.07;1.73;;;11.90;56.20;;;;;;5029452;28;20513;-54
2023/07/26 03:33:10;;;;;;;5.20;1.93;;;11.90;58.20;;;;;;5021255;28;20486;-53
2023/07/26 03:35:37;;;;;;;4.10;2.20;;;11.80;56.20;;;;;;5024494;28;20464;-53
2023/07/26 03:38:03;;;;;;;3.00;1.77;;;11.90;55.60;;;;;;5027932;28;20499;-53
2023/07/26 03:40:31;;;;;;;6.03;1.90;;;11.90;55.30;;;;;;5028762;28;20903;-52
2023/07/26 03:42:58;;;;;;;5.03;1.83;;;11.90;52.30;;;;;;5027537;28;21035;-54
2023/07/26 03:45:26;;;;;;;7.80;2.20;;;11.90;46.40;;;;;;5029674;28;20497;-52
2023/07/26 03:47:53;;;;;;;5.47;1.83;;;11.90;52.00;;;;;;5028488;28;20536;-52
2023/07/26 03:50:20;;;;;;;7.70;2.47;;;11.80;52.50;;;;;;5025583;28;20510;-53
2023/07/26 03:52:46;;;;;;;7.20;2.27;;;11.80;47.00;;;;;;5027052;28;20518;-53
2023/07/26 03:55:13;;;;;;;5.20;1.80;;;11.80;49.90;;;;;;5027475;28;20467;-53
2023/07/26 03:57:41;;;;;;;7.10;2.20;;;11.80;43.10;;;;;;5031967;28;20524;-53
2023/07/26 04:00:08;;;;;;;8.50;2.43;;;11.80;47.80;;;;;;5022828;28;20911;-53
2023/07/26 04:02:35;;;;;;;8.10;2.40;;;11.80;49.10;;;;;;5024024;28;20543;-53
2023/07/26 04:05:02;;;;;;;4.90;2.57;;;11.80;48.40;;;;;;5021565;28;20491;-53
2023/07/26 04:07:28;;;;;;;5.80;2.47;;;11.90;44.40;;;;;;5025730;28;20525;-52
2023/07/26 04:09:55;;;;;;;14.10;2.30;;;11.90;46.20;;;;;;5020512;28;20491;-52
2023/07/26 04:12:21;;;;;;;7.63;2.80;;;11.90;49.00;;;;;;5025064;28;20491;-53
2023/07/26 04:14:49;;;;;;;7.30;2.10;;;11.90;47.00;;;;;;5022252;28;21001;-54
2023/07/26 04:17:16;;;;;;;2.97;1.83;;;11.90;47.30;;;;;;5030990;28;20516;-53
2023/07/26 04:19:42;;;;;;;4.43;2.60;;;11.90;48.70;;;;;;5029833;28;20903;-53
2023/07/26 04:22:09;;;;;;;11.27;2.77;;;12.00;49.00;;;;;;5026299;28;20483;-52
2023/07/26 04:24:35;;;;;;;7.60;2.10;;;12.00;46.40;;;;;;5025772;28;20552;-52
2023/07/26 04:27:02;;;;;;;4.30;2.00;;;12.10;45.50;;;;;;5027209;28;21262;-52
2023/07/26 04:29:28;;;;;;;5.67;2.13;;;12.10;46.50;;;;;;5030376;28;20497;-51
2023/07/26 04:31:56;;;;;;;6.60;2.47;;;12.20;47.60;;;;;;5021655;28;20609;-53
2023/07/26 04:34:23;;;;;;;4.00;1.87;;;12.20;50.40;;;;;;5021624;28;20455;-53
2023/07/26 04:36:49;;;;;;;6.97;2.07;;;12.20;51.90;;;;;;5027516;28;20494;-52
2023/07/26 04:39:16;;;;;;;10.97;2.80;;;12.30;53.00;;;;;;5019638;28;20490;-53
2023/07/26 04:41:42;;;;;;;5.60;1.83;;;12.30;52.00;;;;;;5022636;28;20569;-53
2023/07/26 04:44:09;;;;;;;11.53;2.60;;;12.30;53.10;;;;;;5025515;28;20495;-52
2023/07/26 04:46:36;;;;;;;4.40;2.20;;;12.30;53.70;;;;;;5026694;28;21421;-53
2023/07/26 04:49:04;;;;;;;6.33;2.27;;;12.40;55.20;;;;;;5021269;28;20487;-53
2023/07/26 04:51:30;;;;;;;4.17;2.30;;;12.40;52.90;;;;;;5024588;28;20478;-53
2023/07/26 04:53:57;;;;;;;4.03;2.33;;;12.50;55.30;;;;;;5031770;28;20528;-53
2023/07/26 04:56:25;;;;;;;6.53;2.53;;;12.50;54.20;;;;;;5028091;28;20544;-52
2023/07/26 04:58:52;;;;;;;9.93;2.37;;;12.50;52.40;;;;;;5031443;28;20458;-51
2023/07/26 05:01:19;;;;;;;6.47;1.70;;;12.50;53.60;;;;;;5032640;28;20564;-51
2023/07/26 05:03:46;;;;;;;8.20;2.37;;;12.60;52.10;;;;;;5029363;28;20818;-51
2023/07/26 05:06:14;;;;;;;8.57;2.00;;;12.60;52.80;;;;;;5032152;28;20489;-51
2023/07/26 05:08:40;;;;;;;9.10;2.63;;;12.60;55.30;;;;;;5033819;28;20455;-56
2023/07/26 05:11:07;;;;;;;5.60;1.90;;;12.70;55.30;;;;;;5035249;28;20498;-51
2023/07/26 05:13:34;;;;;;;3.20;1.97;;;12.70;56.70;;;;;;5032571;28;20458;-51
2023/07/26 05:16:00;;;;;;;8.73;2.20;;;12.70;57.60;;;;;;5027783;28;20462;-51
2023/07/26 05:18:27;;;;;;;7.57;2.77;;;12.70;54.80;;;;;;5030103;28;20490;-51
2023/07/26 05:20:53;;;;;;;8.60;2.20;;;12.70;52.20;;;;;;5031743;28;20506;-51
2023/07/26 05:23:21;;;;;;;4.00;1.80;;;12.70;53.60;;;;;;5030446;28;20497;-51
2023/07/26 05:25:48;;;;;;;15.37;2.33;;;12.80;52.20;;;;;;5031624;28;20968;-53
2023/07/26 05:28:14;;;;;;;12.23;2.47;;;12.80;50.80;;;;;;5027790;28;20494;-54
2023/07/26 05:30:42;;;;;;;10.30;2.80;;;12.90;47.20;;;;;;5028789;28;20535;-54
2023/07/26 05:33:09;;;;;;;7.57;2.60;;;12.80;50.10;;;;;;5029621;28;20459;-54
2023/07/26 05:35:36;;;;;;;6.10;2.00;;;12.90;49.30;;;;;;5033576;28;20482;-53
2023/07/26 05:38:03;;;;;;;5.07;1.93;;;12.90;51.90;;;;;;5030657;28;20558;-53
2023/07/26 05:40:31;;;;;;;6.50;1.60;;;13.00;52.40;;;;;;5029916;28;21278;-54
2023/07/26 05:42:57;;;;;;;7.37;2.30;;;13.10;54.10;;;;;;5030948;28;20478;-55
2023/07/26 05:45:24;;;;;;;2.30;1.40;;;13.10;60.20;;;;;;5019257;28;20450;-54
2023/07/26 05:47:50;;;;;;;6.17;2.20;;;13.10;58.90;;;;;;5033004;28;20491;-55
2023/07/26 05:50:17;;;;;;;5.70;2.00;;;13.20;64.50;;;;;;5034059;28;20493;-53
2023/07/26 05:52:44;;;;;;;7.17;2.00;;;13.30;66.80;;;;;;5034907;28;20501;-55
2023/07/26 05:55:11;;;;;;;6.10;2.00;;;13.30;66.70;;;;;;5029547;28;20820;-55
2023/07/26 05:57:39;;;;;;;10.50;2.57;;;13.40;69.50;;;;;;5033129;28;20572;-55
2023/07/26 06:00:08;;;;;;;17.73;2.73;;;13.40;72.20;;;;;;5034322;28;20469;-55
2023/07/26 06:02:34;;;;;;;6.70;2.17;;;13.50;72.40;;;;;;5033202;28;21150;-54
2023/07/26 06:05:01;;;;;;;5.40;2.13;;;13.50;75.00;;;;;;5028092;28;20481;-55
2023/07/26 06:07:27;;;;;;;8.43;2.10;;;13.60;72.50;;;;;;5028666;28;20502;-54
2023/07/26 06:09:54;;;;;;;16.40;2.53;;;13.70;71.50;;;;;;5026324;28;20440;-54
2023/07/26 06:12:20;;;;;;;13.83;2.90;;;13.80;70.90;;;;;;5010171;28;20490;-54
2023/07/26 06:14:48;;;;;;;10.20;2.80;;;13.90;80.90;;;;;;5024574;28;20907;-54
2023/07/26 06:17:15;;;;;;;6.83;2.57;;;14.00;81.90;;;;;;5023114;28;20483;-54
2023/07/26 06:19:41;;;;;;;5.10;2.23;;;14.10;81.60;;;;;;5026737;28;20521;-53
2023/07/26 06:22:08;;;;;;;8.73;1.90;;;14.20;85.90;;;;;;5032488;28;20509;-53
2023/07/26 06:24:36;;;;;;;5.10;2.13;;;14.30;89.40;;;;;;5024043;28;20552;-54
2023/07/26 06:27:04;;;;;;;6.97;2.03;;;14.40;90.90;;;;;;5027416;28;20462;-54
2023/07/26 06:29:30;;;;;;;5.70;2.20;;;14.50;99.90;;;;;;5032886;28;20451;-55
2023/07/26 06:31:58;;;;;;;3.93;2.00;;;14.50;99.90;;;;;;5033090;28;20497;-54
2023/07/26 06:34:25;;;;;;;2.70;2.20;;;14.50;99.90;;;;;;5030727;28;20463;-54
2023/07/26 06:36:51;;;;;;;6.00;2.20;;;14.60;99.90;;;;;;5030947;28;20460;-54
2023/07/26 06:39:18;;;;;;;4.43;1.50;;;14.60;99.90;;;;;;5032846;28;20494;-54
2023/07/26 06:41:45;;;;;;;4.70;1.70;;;14.60;99.90;;;;;;5030240;28;20482;-55
2023/07/26 06:44:11;;;;;;;5.80;2.07;;;14.70;99.90;;;;;;5019175;28;20463;-53
2023/07/26 06:46:38;;;;;;;4.17;2.53;;;14.70;99.90;;;;;;5027366;28;20541;-55
2023/07/26 06:49:06;;;;;;;12.00;2.10;;;14.70;99.90;;;;;;5031477;28;20857;-54
2023/07/26 06:51:33;;;;;;;8.10;2.37;;;14.70;99.90;;;;;;5025442;28;20507;-53
2023/07/26 06:53:59;;;;;;;9.27;2.30;;;14.80;99.90;;;;;;5027596;28;20516;-54
2023/07/26 06:56:26;;;;;;;4.60;1.73;;;14.90;99.90;;;;;;5026179;28;20482;-54
2023/07/26 06:58:53;;;;;;;12.30;2.43;;;15.00;99.90;;;;;;5027601;28;20503;-53
2023/07/26 07:01:20;;;;;;;9.23;2.40;;;15.10;99.90;;;;;;5024789;28;20495;-54
2023/07/26 07:03:47;;;;;;;4.50;2.10;;;15.10;99.90;;;;;;5031979;28;20455;-55
2023/07/26 07:06:15;;;;;;;7.40;2.30;;;15.20;99.90;;;;;;5030778;28;20894;-54
2023/07/26 07:08:42;;;;;;;6.30;1.63;;;15.40;99.90;;;;;;5030333;28;20494;-54
2023/07/26 07:11:08;;;;;;;5.13;1.60;;;15.50;99.90;;;;;;5032813;28;20513;-55
2023/07/26 07:13:36;;;;;;;3.53;2.10;;;15.70;99.90;;;;;;5032198;28;20956;-55
2023/07/26 07:16:04;;;;;;;5.30;1.97;;;15.80;99.90;;;;;;5032771;28;20451;-54
2023/07/26 07:18:31;;;;;;;5.30;2.10;;;15.80;99.90;;;;;;5031988;28;20462;-54
2023/07/26 07:21:00;;;;;;;2.20;1.53;;;15.90;99.90;;;;;;5032819;28;20526;-54
2023/07/26 07:23:28;;;;;;;10.00;2.30;;;16.00;99.90;;;;;;5032417;28;20494;-54
2023/07/26 07:25:55;;;;;;;5.03;1.40;;;16.00;99.90;;;;;;5030977;28;20467;-54
2023/07/26 07:28:21;;;;;;;5.03;1.60;;;16.00;99.90;;;;;;5032756;28;20454;-54
2023/07/26 07:30:49;;;;;;;5.90;2.33;;;16.10;99.90;;;;;;5029387;28;20498;-54
2023/07/26 07:33:15;;;;;;;7.37;2.20;;;16.10;99.90;;;;;;5021645;28;21059;-54
2023/07/26 07:35:42;;;;;;;5.30;2.13;;;16.10;99.90;;;;;;5031100;28;20474;-53
2023/07/26 07:38:08;;;;;;;5.37;2.03;;;16.10;99.90;;;;;;5026939;28;20464;-54
2023/07/26 07:40:37;;;;;;;12.27;2.80;;;16.10;99.90;;;;;;5031079;28;20957;-53
2023/07/26 07:43:04;;;;;;;7.40;1.57;;;16.20;99.90;;;;;;5032099;28;20497;-52
2023/07/26 07:45:30;;;;;;;7.80;1.90;;;16.10;99.90;;;;;;5031525;28;20447;-54
2023/07/26 07:47:57;;;;;;;6.13;2.30;;;16.20;99.90;;;;;;5031336;28;21030;-53
2023/07/26 07:50:24;;;;;;;5.57;2.47;;;16.20;99.90;;;;;;5032377;28;20451;-51
2023/07/26 07:52:50;;;;;;;3.97;2.37;;;16.20;99.90;;;;;;5032397;28;20462;-51
2023/07/26 07:55:17;;;;;;;2.30;1.50;;;16.10;99.90;;;;;;5030160;28;20467;-51
2023/07/26 07:57:45;;;;;;;5.83;2.30;;;16.10;99.90;;;;;;5032121;28;20470;-52
2023/07/26 08:00:13;;;;;;;3.50;2.10;;;16.20;99.90;;;;;;5030231;28;20458;-51
2023/07/26 08:02:39;;;;;;;4.90;2.10;;;16.30;99.90;;;;;;5024159;28;20495;-51
2023/07/26 08:05:06;;;;;;;4.47;2.50;;;16.30;99.90;;;;;;5031027;28;20474;-52
2023/07/26 08:07:33;;;;;;;7.47;2.23;;;16.50;99.90;;;;;;5031603;28;20875;-51
2023/07/26 08:09:59;;;;;;;6.50;2.17;;;16.50;99.90;;;;;;5031688;28;20474;-51
2023/07/26 08:12:26;;;;;;;4.97;2.27;;;16.70;99.90;;;;;;5032077;28;20494;-51
2023/07/26 08:14:54;;;;;;;2.57;2.10;;;16.80;99.90;;;;;;5031319;28;20483;-51
2023/07/26 08:17:20;;;;;;;5.70;2.20;;;17.00;80.50;;;;;;5024543;28;20550;-53
2023/07/26 08:19:47;;;;;;;6.50;2.10;;;17.10;32.90;;;;;;5027006;28;20483;-50
2023/07/26 08:22:14;;;;;;;4.90;2.10;;;17.20;44.60;;;;;;5014106;28;20546;-51
2023/07/26 08:24:40;;;;;;;6.80;2.00;;;17.30;60.00;;;;;;5018686;28;20544;-51
2023/07/26 08:27:07;;;;;;;3.10;2.10;;;17.10;92.20;;;;;;5022636;28;20475;-51
2023/07/26 08:29:34;;;;;;;2.07;1.80;;;17.10;88.20;;;;;;5029852;28;20462;-52
2023/07/26 08:32:01;;;;;;;12.03;2.07;;;17.20;85.20;;;;;;5026537;28;20502;-50
2023/07/26 08:34:28;;;;;;;4.27;2.37;;;17.30;85.70;;;;;;5029802;28;20455;-51
2023/07/26 08:36:54;;;;;;;2.90;2.10;;;17.40;87.10;;;;;;5031239;28;20767;-51
2023/07/26 08:39:21;;;;;;;3.40;2.27;;;17.30;98.80;;;;;;5027108;28;20502;-52
2023/07/26 08:41:49;;;;;;;10.23;2.00;;;17.30;99.90;;;;;;5038943;22;20526;-51
2023/07/26 08:44:16;;;;;;;3.57;1.90;;;17.20;99.90;;;;;;5037847;28;20463;-51
2023/07/26 08:46:46;;;;;;;2.73;2.17;;;17.40;93.30;;;;;;5036034;28;21309;-50
2023/07/26 08:49:14;;;;;;;3.73;2.20;;;17.70;99.90;;;;;;5045514;28;20971;-50
2023/07/26 08:51:43;;;;;;;4.33;1.50;;;17.70;99.90;;;;;;5046337;28;20481;-52
2023/07/26 08:54:10;;;;;;;5.50;2.00;;;17.70;99.90;;;;;;5041583;28;20466;-51
2023/07/26 08:56:36;;;;;;;2.60;1.80;;;17.60;97.80;;;;;;5044786;28;20470;-50
2023/07/26 08:59:03;;;;;;;3.40;1.87;;;17.70;99.90;;;;;;5046840;28;20461;-60
2023/07/26 09:01:30;;;;;;;2.20;1.93;;;17.60;99.90;;;;;;5049566;28;20486;-61
2023/07/26 09:03:57;;;;;;;5.60;2.00;;;17.70;99.90;;;;;;5048666;28;20517;-60
2023/07/26 09:06:24;;;;;;;3.03;2.30;;;18.00;99.90;;;;;;5040818;28;20861;-60
2023/07/26 09:08:52;;;;;;;4.63;2.10;;;18.20;99.90;;;;;;5047336;28;20492;-61
2023/07/26 09:11:23;;;;;;;2.80;2.20;;;18.40;99.90;;;;;;5044622;28;20485;-60
2023/07/26 09:13:53;;;;;;;2.10;1.53;;;18.40;99.90;;;;;;5047976;28;21006;-59
2023/07/26 09:16:20;;;;;;;1.93;1.80;;;18.40;99.90;;;;;;5039064;28;20461;-60
2023/07/26 09:18:58;;;;;;;4.30;2.10;;;18.30;99.90;;;;;;5046823;28;20461;-60
2023/07/26 09:21:27;;;;;;;3.87;1.73;;;18.30;99.90;;;;;;5045381;28;20473;-61
2023/07/26 09:23:54;;;;;;;2.63;1.87;;;18.20;99.90;;;;;;5041724;28;20509;-60
2023/07/26 09:26:33;;;;;;;6.43;2.80;;;18.20;99.90;;;;;;5049351;28;20461;-60
2023/07/26 09:29:00;;;;;;;4.63;2.40;;;18.10;99.90;;;;;;5046157;28;20461;-60
2023/07/26 09:31:31;;;;;;;3.90;2.40;;;18.00;99.90;;;;;;5042793;28;20494;-60
2023/07/26 09:33:58;;;;;;;4.63;2.30;;;17.80;99.90;;;;;;5048670;28;20467;-60
2023/07/26 09:36:24;;;;;;;9.00;1.80;;;17.90;99.90;;;;;;5047535;28;20494;-61
2023/07/26 09:38:52;;;;;;;9.20;2.30;;;18.20;99.90;;;;;;5047312;28;20462;-59
2023/07/26 09:41:23;;;;;;;2.27;2.07;;;18.50;99.90;;;;;;5052883;28;20461;-60
2023/07/26 09:43:50;;;;;;;3.13;2.60;;;18.60;99.90;;;;;;5049855;28;20493;-60
2023/07/26 09:46:17;;;;;;;3.23;2.00;;;18.60;99.90;;;;;;5051981;28;20516;-60
2023/07/26 09:48:57;;;;;;;2.60;1.63;;;18.30;99.90;;;;;;5048909;28;20486;-61
2023/07/26 09:51:26;;;;;;;2.90;2.00;;;18.30;99.90;;;;;;5050090;28;20466;-60
2023/07/26 09:53:56;;;;;;;3.33;1.93;;;18.40;99.90;;;;;;5049326;28;20490;-61
2023/07/26 09:56:24;;;;;;;3.47;2.30;;;18.60;99.90;;;;;;5050914;28;20477;-60
2023/07/26 09:58:51;;;;;;;2.57;1.80;;;18.70;99.90;;;;;;5051224;28;20489;-60
2023/07/26 10:01:19;;;;;;;2.63;2.43;;;18.80;99.90;;;;;;5046675;28;20528;-60
2023/07/26 10:03:51;;;;;;;3.20;2.23;;;18.70;99.90;;;;;;5047217;28;20486;-60
2023/07/26 10:06:19;;;;;;;2.30;1.80;;;18.70;99.90;;;;;;5040268;28;20481;-61
2023/07/26 10:08:47;;;;;;;2.60;2.40;;;19.10;99.90;;;;;;5044259;28;20519;-60
2023/07/26 10:11:16;;;;;;;3.23;2.10;;;19.70;99.90;;;;;;5049604;28;20994;-59
2023/07/26 10:13:44;;;;;;;11.13;1.97;;;20.00;99.90;;;;;;5050818;28;20481;-60
2023/07/26 10:16:11;;;;;;;2.97;2.50;;;19.60;99.90;;;;;;5045087;28;20507;-60
2023/07/26 10:18:37;;;;;;;8.63;2.10;;;19.40;99.90;;;;;;5047574;28;20466;-60
2023/07/26 10:21:06;;;;;;;2.87;1.93;;;19.30;99.90;;;;;;5051833;28;20466;-59
2023/07/26 10:23:33;;;;;;;4.87;1.87;;;19.20;99.90;;;;;;5049931;28;20504;-60
2023/07/26 10:26:03;;;;;;;2.07;1.90;;;19.10;99.90;;;;;;5044568;28;20497;-60
2023/07/26 10:28:33;;;;;;;4.43;2.20;;;19.50;99.90;;;;;;5050278;28;20457;-60
2023/07/26 10:31:01;;;;;;;2.03;1.80;;;19.90;99.90;;;;;;5048760;28;20457;-60
2023/07/26 10:33:28;;;;;;;2.50;2.20;;;20.80;99.90;;;;;;5049677;28;20561;-60
2023/07/26 10:35:54;;;;;;;3.80;1.80;;;21.30;99.90;;;;;;5050074;28;20463;-60
2023/07/26 10:38:21;;;;;;;5.97;2.03;;;21.90;99.90;;;;;;5051228;28;20527;-60
2023/07/26 10:40:48;;;;;;;2.47;2.27;;;21.40;99.90;;;;;;5049319;28;20489;-60
2023/07/26 10:43:40;;;;;;;4.33;2.27;;;20.70;99.90;;;;;;5044399;28;21076;-60
2023/07/26 10:46:13;;;;;;;3.43;1.73;;;20.30;99.90;;;;;;5048321;28;20975;-60
2023/07/26 10:48:41;;;;;;;2.07;1.90;;;19.50;99.90;;;;;;5046761;28;20542;-61
2023/07/26 10:51:23;;;;;;;2.43;2.23;;;19.20;99.90;;;;;;5045991;28;20482;-60
2023/07/26 10:53:49;;;;;;;5.70;2.13;;;18.90;99.90;;;;;;5045895;28;20568;-60
2023/07/26 10:56:20;;;;;;;2.23;2.07;;;19.00;99.90;;;;;;5042993;28;20875;-59
2023/07/26 10:58:53;;;;;;;5.10;2.00;;;19.60;99.90;;;;;;5047068;28;20511;-59
2023/07/26 11:01:39;;;;;;;3.53;1.70;;;19.40;99.90;;;;;;5037152;28;20575;-60
2023/07/26 11:04:12;;;;;;;3.77;2.07;;;19.90;99.90;;;;;;5041150;28;20512;-60
2023/07/26 11:06:53;;;;;;;2.40;2.03;;;20.80;99.90;;;;;;5047243;28;20490;-59
2023/07/26 11:09:21;;;;;;;6.87;2.17;;;21.00;99.90;;;;;;5043696;28;20453;-60
2023/07/26 11:11:56;;;;;;;2.87;2.00;;;21.40;99.90;;;;;;5044848;28;20478;-59
2023/07/26 11:14:25;;;;;;;2.87;2.17;;;21.40;99.90;;;;;;5045729;28;20477;-61
2023/07/26 11:16:52;;;;;;;5.80;2.30;;;22.10;99.90;;;;;;5038973;28;20488;-61
2023/07/26 11:19:19;;;;;;;4.53;2.03;;;21.40;99.90;;;;;;5047640;28;20501;-61
2023/07/26 11:21:45;;;;;;;3.57;2.10;;;21.20;99.90;;;;;;5048020;28;20494;-60
2023/07/26 11:24:12;;;;;;;2.83;1.97;;;20.80;99.90;;;;;;5045193;28;20513;-60
2023/07/26 11:26:44;;;;;;;2.50;1.70;;;20.00;99.90;;;;;;5049420;28;20462;-61
2023/07/26 11:29:10;;;;;;;4.17;2.43;;;20.00;99.90;;;;;;5049737;28;20461;-52
2023/07/26 11:31:39;;;;;;;7.30;2.70;;;19.50;99.90;;;;;;5048275;28;20486;-52
2023/07/26 11:34:16;;;;;;;6.70;2.10;;;19.20;99.90;;;;;;5048093;28;20462;-52
2023/07/26 11:36:43;;;;;;;5.40;2.40;;;18.80;99.90;;;;;;5048058;28;20492;-52
2023/07/26 11:39:19;;;;;;;7.80;2.80;;;18.40;68.20;;;;;;5046966;28;20534;-52
2023/07/26 11:41:46;;;;;;;3.47;2.00;;;18.00;99.90;;;;;;5042022;28;20450;-53
2023/07/26 11:44:13;;;;;;;4.23;2.57;;;17.50;99.90;;;;;;5047430;28;20482;-53
2023/07/26 11:46:43;;;;;;;5.03;2.17;;;17.10;99.90;;;;;;5048421;28;20464;-52
2023/07/26 11:49:11;;;;;;;2.97;2.10;;;17.00;86.30;;;;;;5044789;28;20831;-53
2023/07/26 11:51:38;;;;;;;4.17;2.33;;;16.70;99.90;;;;;;5050579;28;20541;-52
2023/07/26 11:54:10;;;;;;;2.40;2.20;;;16.50;99.90;;;;;;5043934;28;20493;-52
2023/07/26 11:56:37;;;;;;;4.73;2.27;;;16.40;99.90;;;;;;5049980;28;20868;-53
2023/07/26 11:59:04;;;;;;;3.30;2.60;;;16.30;99.90;;;;;;5040601;28;20454;-52
2023/07/26 12:01:31;;;;;;;10.13;2.20;;;16.40;99.90;;;;;;5045685;28;21215;-53
2023/07/26 12:04:00;;;;;;;2.17;1.70;;;16.70;93.90;;;;;;5049918;28;20474;-54
2023/07/26 12:06:30;;;;;;;4.00;2.30;;;17.00;98.00;;;;;;5050346;28;20813;-54
2023/07/26 12:09:03;;;;;;;3.50;2.20;;;17.30;99.90;;;;;;5044998;28;20492;-52
2023/07/26 12:11:30;;;;;;;3.70;2.17;;;17.70;99.90;;;;;;5045906;28;20983;-52
2023/07/26 12:13:57;;;;;;;2.90;2.50;;;18.10;99.90;;;;;;5046082;28;20983;-53
2023/07/26 12:16:28;;;;;;;2.73;2.27;;;18.60;99.90;;;;;;5044383;28;20462;-52
2023/07/26 12:18:57;;;;;;;3.13;2.50;;;18.90;99.90;;;;;;5044370;28;20893;-52
2023/07/26 12:21:25;;;;;;;5.80;2.67;;;18.90;99.90;;;;;;5043194;28;20539;-52
2023/07/26 12:23:53;;;;;;;2.87;2.37;;;19.20;69.70;;;;;;5048282;28;20519;-52
2023/07/26 12:26:20;;;;;;;2.90;2.23;;;19.40;94.20;;;;;;5045598;28;20542;-53
2023/07/26 12:28:47;;;;;;;3.83;2.50;;;19.50;99.90;;;;;;5049962;28;20458;-53
2023/07/26 12:31:18;;;;;;;5.37;2.57;;;19.70;99.90;;;;;;5047530;28;20458;-53
2023/07/26 12:34:00;;;;;;;2.50;2.30;;;19.90;99.90;;;;;;5051372;28;20465;-53
2023/07/26 12:36:29;;;;;;;3.73;1.87;;;20.30;99.90;;;;;;5051743;28;21349;-53
2023/07/26 12:38:56;;;;;;;2.60;1.50;;;20.60;99.90;;;;;;5051340;28;20941;-54
2023/07/26 12:41:23;;;;;;;2.60;1.70;;;20.60;99.90;;;;;;5051900;28;20536;-52
2023/07/26 12:43:54;;;;;;;3.73;2.17;;;20.50;99.90;;;;;;5049549;28;20528;-52
2023/07/26 12:46:21;;;;;;;4.90;1.70;;;21.10;99.90;;;;;;5049725;28;20499;-52
2023/07/26 12:48:47;;;;;;;5.70;1.40;;;21.20;99.90;;;;;;5047628;28;20580;-52